This is the latest recevied weather packets stored in our database for station/object NI4CE-10. If no packets are shown the sender has not sent any weather packets the latest 10 day(s).
| Time | Temp. | Humidity | Pressure | Rain* | Wind** | Luminosity | Snow |
|---|---|---|---|---|---|---|---|
| 1777400789 | 31.11° C | 100% | 1021.1 hPa | 0 mm | - | - | - |
| 1777400489 | 31.67° C | 100% | 1021.1 hPa | 0 mm | - | - | - |
| 1777400195 | 31.67° C | 100% | 1021.2 hPa | 0 mm | - | - | - |
| 1777400189 | 31.67° C | 100% | 1021.2 hPa | 0 mm | - | - | - |
| 1777399983 | 31.67° C | 100% | 1021.2 hPa | 0 mm | - | - | - |
| 1777399889 | 31.67° C | 100% | 1021.2 hPa | 0 mm | - | - | - |
| 1777399589 | 31.11° C | 100% | 1021.2 hPa | 0 mm | - | - | - |
| 1777399531 | 31.67° C | 100% | 1021.2 hPa | 0 mm | - | - | - |
| 1777399289 | 31.67° C | 100% | 1021.2 hPa | 0 mm | - | - | - |
| 1777399239 | 31.11° C | 100% | 1021.3 hPa | 0 mm | - | - | - |
| 1777398990 | 31.11° C | 100% | 1021.3 hPa | 0 mm | - | - | - |
| 1777398964 | 31.67° C | 100% | 1021.3 hPa | 0 mm | - | - | - |
| 1777398850 | 31.67° C | 100% | 1021.3 hPa | 0 mm | - | - | - |
| 1777398689 | 31.67° C | 100% | 1021.3 hPa | 0 mm | - | - | - |
| 1777398390 | 31.67° C | 100% | 1021.3 hPa | 0 mm | - | - | - |
| 1777398229 | 31.67° C | 100% | 1021.4 hPa | 0 mm | - | - | - |
| 1777398090 | 31.67° C | 100% | 1021.4 hPa | 0 mm | - | - | - |
| 1777397909 | 31.67° C | 100% | 1021.3 hPa | 0 mm | - | - | - |
| 1777397790 | 31.67° C | 100% | 1021.3 hPa | 0 mm | - | - | - |
| 1777397730 | 31.67° C | 100% | 1021.3 hPa | 0 mm | - | - | - |
| 1777397490 | 31.67° C | 100% | 1021.3 hPa | 0 mm | - | - | - |
| 1777397190 | 31.67° C | 100% | 1021.4 hPa | 0 mm | - | - | - |
| 1777396890 | 32.78° C | 100% | 1021.4 hPa | 0 mm | - | - | - |
| 1777396753 | 28.89° C | 100% | 1022.2 hPa | 0 mm | - | - | - |
| 1777396652 | 30.56° C | 100% | 1021.4 hPa | 0 mm | - | - | - |
* Rain latest hour (hover to see other rain measurements)
** Current wind speed in m/s (hover to see current wind gust speed)